Kemnay, United Kingdom
Current Conditions -  °F | °C
As of 3:20 AM on Wednesday 26 Nov 2014 (Local Time) from EGPD Reporting Station
Overcast Overcast  
Wind Chill: 43°   Ceiling: 4200
Heat Index: 43°   Visibility: 6mi
Dew Point: 41°   Wind: 3mph
Humidity: 93%   Direction: 210°SSW
Pressure: 30.06"   Gusts: NA
Location:  57.24°N, 2.44°W
Report Text: EGPD 260320Z AUTO 21003KT 9999 OVC042/// 06/05 Q1018
Loading
Personal Weather Stations






























Interactive Weather Map New forecast layout! Learn more

10-Day Weather Forecast

Advertisements
Track Severe Weather on mobile